createdAt,value
2023-02-18T00:01:16.363Z,101107.00
2023-02-18T00:03:44.442Z,101099.00
2023-02-18T00:06:14.233Z,101081.00
2023-02-18T00:08:42.570Z,101085.00
2023-02-18T00:11:10.514Z,101086.00
2023-02-18T00:13:39.686Z,101075.00
2023-02-18T00:16:09.739Z,101088.00
2023-02-18T00:18:38.013Z,101086.00
2023-02-18T00:21:07.220Z,101092.00
2023-02-18T00:23:35.572Z,101073.00
2023-02-18T00:26:05.295Z,101080.00
2023-02-18T00:28:33.483Z,101081.00
2023-02-18T00:31:07.452Z,101061.00
2023-02-18T00:33:35.495Z,101075.00
2023-02-18T00:36:04.786Z,101071.00
2023-02-18T00:38:32.864Z,101085.00
2023-02-18T00:41:01.444Z,101089.00
2023-02-18T00:43:32.139Z,101074.00
2023-02-18T00:46:00.051Z,101074.00
2023-02-18T00:48:29.536Z,101092.00
2023-02-18T00:50:57.304Z,101070.00
2023-02-18T00:53:25.165Z,101099.00
2023-02-18T00:55:53.435Z,101091.00
2023-02-18T00:58:21.225Z,101083.00
2023-02-18T01:00:49.440Z,101099.00
2023-02-18T01:03:17.351Z,101093.00
2023-02-18T01:05:46.575Z,101086.00
2023-02-18T01:08:14.327Z,101103.00
2023-02-18T01:10:44.922Z,101103.00
2023-02-18T01:13:13.541Z,101093.00
2023-02-18T01:15:42.176Z,101095.00
2023-02-18T01:18:10.988Z,101088.00
2023-02-18T01:20:40.686Z,101075.00
2023-02-18T01:23:10.447Z,101062.00
2023-02-18T01:25:38.875Z,101092.00
2023-02-18T01:28:07.827Z,101096.00
2023-02-18T01:30:35.962Z,101063.00
2023-02-18T01:33:03.769Z,101105.00
2023-02-18T01:35:31.598Z,101113.00
2023-02-18T01:37:59.461Z,101105.00
2023-02-18T01:40:30.717Z,101082.00
2023-02-18T01:42:58.475Z,101089.00
2023-02-18T01:45:49.154Z,101079.00
2023-02-18T01:48:20.910Z,101086.00
2023-02-18T01:50:54.515Z,101073.00
2023-02-18T01:53:31.202Z,101083.00
2023-02-18T01:56:03.804Z,101066.00
2023-02-18T01:58:31.999Z,101076.00
2023-02-18T02:00:59.989Z,101081.00
2023-02-18T02:03:27.882Z,101071.00
2023-02-18T02:05:55.706Z,101071.00
2023-02-18T02:08:23.643Z,101066.00
2023-02-18T02:11:08.542Z,101048.00
2023-02-18T02:13:48.385Z,101045.00
2023-02-18T02:16:23.333Z,101057.00
2023-02-18T02:19:03.281Z,101050.00
2023-02-18T02:21:53.624Z,101038.00
2023-02-18T02:25:02.095Z,101056.00
2023-02-18T02:27:49.491Z,101050.00
2023-02-18T02:30:42.938Z,101049.00
2023-02-18T02:33:37.434Z,101048.00
2023-02-18T02:36:14.148Z,101060.00
2023-02-18T02:38:51.172Z,101044.00
2023-02-18T02:41:28.778Z,101038.00
2023-02-18T02:44:07.727Z,101048.00
2023-02-18T02:46:39.924Z,101046.00
2023-02-18T02:49:17.232Z,101031.00
2023-02-18T02:51:52.191Z,101036.00
2023-02-18T02:54:23.076Z,101008.00
2023-02-18T02:56:51.287Z,101038.00
2023-02-18T02:59:23.996Z,101032.00
2023-02-18T03:02:09.928Z,101006.00
2023-02-18T03:04:51.192Z,100998.00
2023-02-18T03:07:34.737Z,101021.00
2023-02-18T03:10:19.405Z,101023.00
2023-02-18T03:12:53.650Z,101023.00
2023-02-18T03:15:25.254Z,101017.00
2023-02-18T03:17:58.963Z,101020.00
2023-02-18T03:20:29.254Z,101012.00
2023-02-18T03:23:01.159Z,101016.00
2023-02-18T03:25:30.209Z,100999.00
2023-02-18T03:28:02.621Z,101005.00
2023-02-18T03:30:33.987Z,100953.00
2023-02-18T03:33:06.668Z,100988.00
2023-02-18T03:35:37.143Z,100977.00
2023-02-18T03:38:13.084Z,100994.00
2023-02-18T03:40:40.990Z,100978.00
2023-02-18T03:43:08.945Z,100991.00
2023-02-18T03:45:36.750Z,100946.00
2023-02-18T03:48:04.844Z,100987.00
2023-02-18T03:50:32.569Z,100986.00
2023-02-18T03:53:00.229Z,100954.00
2023-02-18T03:55:29.431Z,100949.00
2023-02-18T03:57:57.200Z,100961.00
2023-02-18T04:00:24.904Z,100964.00
2023-02-18T04:02:52.709Z,100974.00
2023-02-18T04:05:20.798Z,100958.00
2023-02-18T04:07:48.570Z,100949.00
2023-02-18T04:10:16.379Z,100960.00
2023-02-18T04:12:45.660Z,100965.00
2023-02-18T04:15:14.079Z,100947.00
2023-02-18T04:17:41.805Z,100965.00
2023-02-18T04:20:10.351Z,100963.00
2023-02-18T04:22:38.048Z,100964.00
2023-02-18T04:25:06.357Z,100952.00
2023-02-18T04:27:34.024Z,100964.00
2023-02-18T04:30:03.437Z,100962.00
2023-02-18T04:32:31.229Z,100960.00
2023-02-18T04:34:58.921Z,100960.00
2023-02-18T04:37:26.821Z,100962.00
2023-02-18T04:39:57.700Z,100954.00
2023-02-18T04:42:26.384Z,100933.00
2023-02-18T04:44:54.333Z,100952.00
2023-02-18T04:47:23.815Z,100945.00
2023-02-18T04:49:51.646Z,100948.00
2023-02-18T04:52:19.569Z,100946.00
2023-02-18T04:54:47.381Z,100921.00
2023-02-18T04:57:15.126Z,100938.00
2023-02-18T04:59:43.016Z,100904.00
2023-02-18T05:02:10.823Z,100909.00
2023-02-18T05:04:39.960Z,100918.00
2023-02-18T05:07:07.844Z,100908.00
2023-02-18T05:09:35.543Z,100913.00
2023-02-18T05:12:03.303Z,100913.00
2023-02-18T05:14:31.044Z,100917.00
2023-02-18T05:16:58.985Z,100916.00
2023-02-18T05:19:26.682Z,100905.00
2023-02-18T05:21:55.792Z,100896.00
2023-02-18T05:24:23.603Z,100898.00
2023-02-18T05:26:51.638Z,100898.00
2023-02-18T05:29:19.409Z,100897.00
2023-02-18T05:31:47.289Z,100893.00
2023-02-18T05:34:15.044Z,100888.00
2023-02-18T05:36:42.790Z,100884.00
2023-02-18T05:39:11.923Z,100880.00
2023-02-18T05:41:39.819Z,100878.00
2023-02-18T05:44:24.728Z,100862.00
2023-02-18T05:46:52.661Z,100860.00
2023-02-18T05:49:23.726Z,100859.00
2023-02-18T05:51:53.679Z,100824.00
2023-02-18T05:54:23.214Z,100836.00
2023-02-18T05:56:51.190Z,100824.00
2023-02-18T05:59:19.524Z,100834.00
2023-02-18T06:01:47.965Z,100815.00
2023-02-18T06:04:16.249Z,100821.00
2023-02-18T06:06:44.446Z,100829.00
2023-02-18T06:09:12.698Z,100801.00
2023-02-18T06:11:41.838Z,100806.00
2023-02-18T06:14:09.793Z,100780.00
2023-02-18T06:16:37.780Z,100807.00
2023-02-18T06:19:05.790Z,100761.00
2023-02-18T06:21:33.775Z,100783.00
2023-02-18T06:24:09.669Z,100784.00
2023-02-18T06:26:54.248Z,100763.00
2023-02-18T06:29:22.146Z,100773.00
2023-02-18T06:31:50.124Z,100765.00
2023-02-18T06:34:18.209Z,100755.00
2023-02-18T06:36:46.300Z,100727.00
2023-02-18T06:39:14.196Z,100742.00
2023-02-18T06:41:43.424Z,100747.00
2023-02-18T06:44:11.688Z,100694.00
2023-02-18T06:46:39.487Z,100691.00
2023-02-18T06:49:07.333Z,100705.00
2023-02-18T06:51:35.173Z,100708.00
2023-02-18T06:54:03.211Z,100722.00
2023-02-18T06:56:31.173Z,100735.00
2023-02-18T06:59:00.613Z,100712.00
2023-02-18T07:01:28.454Z,100693.00
2023-02-18T07:03:59.816Z,100684.00
2023-02-18T07:06:35.047Z,100699.00
2023-02-18T07:09:12.412Z,100687.00
2023-02-18T07:11:52.404Z,100678.00
2023-02-18T07:14:21.860Z,100647.00
2023-02-18T07:17:19.970Z,100678.00
2023-02-18T07:19:56.789Z,100679.00
2023-02-18T07:22:35.237Z,100659.00
2023-02-18T07:25:04.187Z,100655.00
2023-02-18T07:27:45.124Z,100632.00
2023-02-18T07:30:28.956Z,100652.00
2023-02-18T07:32:56.952Z,100657.00
2023-02-18T07:35:35.041Z,100587.00
2023-02-18T07:38:27.203Z,100631.00
2023-02-18T07:41:44.638Z,100628.00
2023-02-18T07:44:41.579Z,100580.00
2023-02-18T07:51:11.996Z,100601.00
2023-02-18T07:54:04.521Z,100625.00
2023-02-18T08:04:30.971Z,100543.00
2023-02-18T08:07:09.460Z,100581.00
2023-02-18T08:09:53.884Z,100593.00
2023-02-18T08:16:07.436Z,100572.00
2023-02-18T08:23:06.478Z,100587.00
2023-02-18T08:25:57.569Z,100570.00
2023-02-18T08:36:58.499Z,100555.00
2023-02-18T08:41:02.324Z,100548.00
2023-02-18T08:55:48.858Z,100472.00
2023-02-18T08:58:50.168Z,100514.00
2023-02-18T09:33:33.369Z,100476.00
2023-02-18T09:44:14.606Z,100477.00
2023-02-18T09:46:50.369Z,100462.00
2023-02-18T09:49:24.056Z,100468.00
2023-02-18T09:51:52.183Z,100463.00
2023-02-18T09:56:56.762Z,100475.00
2023-02-18T09:59:27.273Z,100467.00
2023-02-18T10:01:57.171Z,100448.00
2023-02-18T10:04:32.037Z,100466.00
2023-02-18T10:07:02.136Z,100464.00
2023-02-18T10:09:34.709Z,100454.00
2023-02-18T10:12:14.337Z,100446.00
2023-02-18T10:14:42.335Z,100450.00
2023-02-18T10:17:16.224Z,100427.00
2023-02-18T10:19:48.640Z,100469.00
2023-02-18T10:22:17.778Z,100451.00
2023-02-18T10:24:49.426Z,100453.00
2023-02-18T10:27:24.536Z,100461.00
2023-02-18T10:29:52.499Z,100472.00
2023-02-18T10:32:24.124Z,100458.00
2023-02-18T10:35:04.095Z,100450.00
2023-02-18T10:37:55.785Z,100461.00
2023-02-18T10:40:33.331Z,100457.00
2023-02-18T10:43:11.979Z,100460.00
2023-02-18T10:45:48.817Z,100452.00
2023-02-18T10:48:37.242Z,100461.00
2023-02-18T10:51:15.665Z,100452.00
2023-02-18T10:53:46.604Z,100447.00
2023-02-18T10:56:34.991Z,100448.00
2023-02-18T10:59:10.810Z,100438.00
2023-02-18T11:01:39.208Z,100424.00
2023-02-18T11:04:13.741Z,100443.00
2023-02-18T11:06:46.378Z,100427.00
2023-02-18T11:09:31.170Z,100429.00
2023-02-18T11:12:08.661Z,100423.00
2023-02-18T11:14:43.021Z,100420.00
2023-02-18T11:17:17.738Z,100420.00
2023-02-18T11:19:54.525Z,100421.00
2023-02-18T11:22:25.907Z,100418.00
2023-02-18T11:24:58.433Z,100411.00
2023-02-18T11:27:32.214Z,100412.00
2023-02-18T11:30:04.084Z,100438.00
2023-02-18T11:32:35.681Z,100415.00
2023-02-18T11:35:04.353Z,100424.00
2023-02-18T11:37:37.693Z,100426.00
2023-02-18T11:40:06.582Z,100423.00
2023-02-18T11:42:34.303Z,100427.00
2023-02-18T11:45:04.454Z,100425.00
2023-02-18T11:47:35.016Z,100420.00
2023-02-18T11:50:26.547Z,100422.00
2023-02-18T11:52:57.435Z,100437.00
2023-02-18T11:55:27.422Z,100427.00
2023-02-18T11:57:58.004Z,100432.00
2023-02-18T12:00:36.686Z,100435.00
2023-02-18T12:03:08.876Z,100428.00
2023-02-18T12:05:38.889Z,100418.00
2023-02-18T12:08:14.955Z,100401.00
2023-02-18T12:10:45.846Z,100397.00
2023-02-18T12:13:25.891Z,100418.00
2023-02-18T12:16:14.470Z,100402.00
2023-02-18T12:19:04.420Z,100415.00
2023-02-18T12:21:41.299Z,100422.00
2023-02-18T12:24:24.872Z,100412.00
2023-02-18T12:27:00.417Z,100424.00
2023-02-18T12:29:43.885Z,100415.00
2023-02-18T12:32:23.117Z,100421.00
2023-02-18T12:35:04.443Z,100431.00
2023-02-18T12:38:10.884Z,100443.00
2023-02-18T12:40:54.814Z,100443.00
2023-02-18T12:43:35.028Z,100422.00
2023-02-18T12:46:22.356Z,100435.00
2023-02-18T12:49:02.376Z,100436.00
2023-02-18T12:51:39.604Z,100431.00
2023-02-18T12:54:34.336Z,100440.00
2023-02-18T12:57:24.853Z,100420.00
2023-02-18T13:00:18.829Z,100435.00
2023-02-18T13:03:04.982Z,100456.00
2023-02-18T13:05:45.838Z,100442.00
2023-02-18T13:08:33.208Z,100442.00
2023-02-18T13:11:20.313Z,100446.00
2023-02-18T13:13:58.643Z,100427.00
2023-02-18T13:16:29.416Z,100437.00
2023-02-18T13:19:02.913Z,100449.00
2023-02-18T13:21:32.047Z,100436.00
2023-02-18T13:24:03.378Z,100447.00
2023-02-18T13:26:33.472Z,100435.00
2023-02-18T13:29:17.860Z,100444.00
2023-02-18T13:31:52.552Z,100456.00
2023-02-18T13:34:26.536Z,100459.00
2023-02-18T13:37:02.910Z,100474.00
2023-02-18T13:39:32.556Z,100460.00
2023-02-18T13:42:25.602Z,100454.00
2023-02-18T13:45:32.507Z,100462.00
2023-02-18T13:48:01.935Z,100474.00
2023-02-18T13:50:33.869Z,100477.00
2023-02-18T13:53:19.953Z,100483.00
2023-02-18T13:55:53.837Z,100488.00
2023-02-18T13:58:25.399Z,100484.00
2023-02-18T14:00:58.244Z,100506.00
2023-02-18T14:03:51.105Z,100481.00
2023-02-18T14:06:20.924Z,100493.00
2023-02-18T14:08:49.785Z,100497.00
2023-02-18T14:11:34.970Z,100496.00
2023-02-18T14:14:46.114Z,100485.00
2023-02-18T14:17:30.931Z,100492.00
2023-02-18T14:20:31.201Z,100498.00
2023-02-18T14:22:59.222Z,100498.00
2023-02-18T14:25:36.253Z,100500.00
2023-02-18T14:28:05.940Z,100503.00
2023-02-18T14:30:41.049Z,100503.00
2023-02-18T14:33:17.498Z,100514.00
2023-02-18T14:35:49.934Z,100525.00
2023-02-18T14:38:36.992Z,100518.00
2023-02-18T14:41:40.020Z,100511.00
2023-02-18T14:44:44.778Z,100516.00
2023-02-18T14:47:25.531Z,100523.00
2023-02-18T14:49:58.945Z,100530.00
2023-02-18T14:52:32.687Z,100537.00
2023-02-18T14:55:03.571Z,100530.00
2023-02-18T14:57:38.123Z,100517.00
2023-02-18T15:00:07.614Z,100518.00
2023-02-18T15:02:39.461Z,100522.00
2023-02-18T15:05:16.638Z,100520.00
2023-02-18T15:07:56.092Z,100550.00
2023-02-18T15:10:26.709Z,100542.00
2023-02-18T15:12:56.334Z,100539.00
2023-02-18T15:15:24.833Z,100547.00
2023-02-18T15:17:52.780Z,100539.00
2023-02-18T15:20:21.880Z,100559.00
2023-02-18T15:22:49.693Z,100548.00
2023-02-18T15:25:17.474Z,100543.00
2023-02-18T15:27:46.909Z,100554.00
2023-02-18T15:30:22.173Z,100565.00
2023-02-18T15:32:54.367Z,100563.00
2023-02-18T15:35:24.785Z,100558.00
2023-02-18T15:37:54.727Z,100562.00
2023-02-18T15:40:25.326Z,100572.00
2023-02-18T15:42:57.425Z,100570.00
2023-02-18T15:45:30.838Z,100567.00
2023-02-18T15:47:59.492Z,100571.00
2023-02-18T15:50:30.639Z,100566.00
2023-02-18T15:53:00.720Z,100590.00
2023-02-18T15:55:32.190Z,100577.00
2023-02-18T15:58:02.767Z,100579.00
2023-02-18T16:00:34.433Z,100578.00
2023-02-18T16:03:05.586Z,100594.00
2023-02-18T16:05:39.372Z,100599.00
2023-02-18T16:08:13.983Z,100577.00
2023-02-18T16:10:54.484Z,100589.00
2023-02-18T16:13:25.102Z,100608.00
2023-02-18T16:15:54.645Z,100605.00
2023-02-18T16:18:29.988Z,100601.00
2023-02-18T16:21:02.371Z,100606.00
2023-02-18T16:23:37.282Z,100617.00
2023-02-18T16:26:22.629Z,100597.00
2023-02-18T16:28:53.679Z,100590.00
2023-02-18T16:31:22.038Z,100588.00
2023-02-18T16:33:50.612Z,100601.00
2023-02-18T16:36:21.287Z,100603.00
2023-02-18T16:38:49.470Z,100607.00
2023-02-18T16:41:18.636Z,100606.00
2023-02-18T16:43:46.302Z,100605.00
2023-02-18T16:46:17.504Z,100607.00
2023-02-18T16:48:47.056Z,100608.00
2023-02-18T16:51:17.654Z,100605.00
2023-02-18T16:53:46.743Z,100619.00
2023-02-18T16:56:16.347Z,100615.00
2023-02-18T16:58:44.341Z,100621.00
2023-02-18T17:01:23.653Z,100627.00
2023-02-18T17:03:51.733Z,100620.00
2023-02-18T17:06:19.734Z,100623.00
2023-02-18T17:08:49.424Z,100632.00
2023-02-18T17:11:23.724Z,100631.00
2023-02-18T17:13:51.744Z,100629.00
2023-02-18T17:16:20.368Z,100634.00
2023-02-18T17:18:48.701Z,100635.00
2023-02-18T17:21:19.463Z,100645.00
2023-02-18T17:23:49.197Z,100653.00
2023-02-18T17:26:22.946Z,100640.00
2023-02-18T17:28:51.446Z,100663.00
2023-02-18T17:31:23.412Z,100659.00
2023-02-18T17:33:51.526Z,100662.00
2023-02-18T17:36:19.804Z,100661.00
2023-02-18T17:38:49.304Z,100660.00
2023-02-18T17:41:17.634Z,100663.00
2023-02-18T17:43:46.083Z,100656.00
2023-02-18T17:46:16.066Z,100665.00
2023-02-18T17:48:45.298Z,100671.00
2023-02-18T17:51:24.382Z,100672.00
2023-02-18T17:53:54.060Z,100660.00
2023-02-18T17:56:21.908Z,100673.00
2023-02-18T17:58:49.749Z,100682.00
2023-02-18T18:01:18.515Z,100683.00
2023-02-18T18:03:46.408Z,100685.00
2023-02-18T18:06:17.398Z,100682.00
2023-02-18T18:08:45.232Z,100698.00
2023-02-18T18:11:18.058Z,100691.00
2023-02-18T18:13:46.593Z,100697.00
2023-02-18T18:16:16.263Z,100699.00
2023-02-18T18:18:44.332Z,100697.00
2023-02-18T18:21:20.677Z,100701.00
2023-02-18T18:23:48.346Z,100707.00
2023-02-18T18:26:18.114Z,100700.00
2023-02-18T18:28:45.773Z,100706.00
2023-02-18T18:31:18.592Z,100702.00
2023-02-18T18:33:48.828Z,100708.00
2023-02-18T18:36:16.930Z,100712.00
2023-02-18T18:38:44.619Z,100717.00
2023-02-18T18:41:15.427Z,100719.00
2023-02-18T18:43:44.606Z,100729.00
2023-02-18T18:46:12.401Z,100719.00
2023-02-18T18:48:40.208Z,100719.00
2023-02-18T18:51:08.115Z,100716.00
2023-02-18T18:53:36.679Z,100726.00
2023-02-18T18:56:06.504Z,100737.00
2023-02-18T18:58:34.497Z,100731.00
2023-02-18T19:01:06.817Z,100748.00
2023-02-18T19:03:35.495Z,100729.00
2023-02-18T19:06:03.276Z,100742.00
2023-02-18T19:08:32.287Z,100741.00
2023-02-18T19:11:00.045Z,100743.00
2023-02-18T19:13:29.361Z,100744.00
2023-02-18T19:16:02.258Z,100756.00
2023-02-18T19:18:33.580Z,100742.00
2023-02-18T19:21:03.404Z,100741.00
2023-02-18T19:23:31.271Z,100745.00
2023-02-18T19:25:59.235Z,100743.00
2023-02-18T19:28:27.483Z,100748.00
2023-02-18T19:30:55.190Z,100753.00
2023-02-18T19:33:23.131Z,100741.00
2023-02-18T19:35:52.137Z,100749.00
2023-02-18T19:38:21.172Z,100755.00
2023-02-18T19:40:48.928Z,100758.00
2023-02-18T19:43:16.835Z,100763.00
2023-02-18T19:45:46.832Z,100765.00
2023-02-18T19:48:16.262Z,100761.00
2023-02-18T19:50:44.962Z,100765.00
2023-02-18T19:53:13.991Z,100767.00
2023-02-18T19:55:41.687Z,100758.00
2023-02-18T19:58:09.396Z,100768.00
2023-02-18T20:00:37.102Z,100794.00
2023-02-18T20:03:04.890Z,100771.00
2023-02-18T20:05:32.550Z,100766.00
2023-02-18T20:08:00.273Z,100764.00
2023-02-18T20:10:29.305Z,100767.00
2023-02-18T20:12:56.975Z,100767.00
2023-02-18T20:15:24.852Z,100770.00
2023-02-18T20:17:52.498Z,100764.00
2023-02-18T20:20:20.730Z,100754.00
2023-02-18T20:22:48.518Z,100740.00
2023-02-18T20:25:16.347Z,100741.00
2023-02-18T20:27:59.762Z,100753.00
2023-02-18T20:30:28.922Z,100752.00
2023-02-18T20:32:56.665Z,100757.00
2023-02-18T20:35:24.423Z,100763.00
2023-02-18T20:37:52.128Z,100763.00
2023-02-18T20:40:19.987Z,100773.00
2023-02-18T20:42:49.607Z,100764.00
2023-02-18T20:45:17.464Z,100762.00
2023-02-18T20:47:45.143Z,100761.00
2023-02-18T20:50:12.780Z,100763.00
2023-02-18T20:52:40.883Z,100765.00
2023-02-18T20:55:08.771Z,100771.00
2023-02-18T20:57:36.624Z,100767.00
2023-02-18T21:00:06.835Z,100765.00
2023-02-18T21:02:34.594Z,100754.00
2023-02-18T21:05:02.318Z,100748.00
2023-02-18T21:07:30.018Z,100758.00
2023-02-18T21:09:57.674Z,100751.00
2023-02-18T21:12:25.281Z,100763.00
2023-02-18T21:14:53.010Z,100761.00
2023-02-18T21:17:22.878Z,100776.00
2023-02-18T21:19:50.606Z,100758.00
2023-02-18T21:22:18.253Z,100760.00
2023-02-18T21:24:45.902Z,100754.00
2023-02-18T21:27:13.626Z,100753.00
2023-02-18T21:29:41.282Z,100752.00
2023-02-18T21:32:09.200Z,100752.00
2023-02-18T21:34:38.571Z,100761.00
2023-02-18T21:37:06.235Z,100760.00
2023-02-18T21:39:33.904Z,100745.00
2023-02-18T21:42:04.064Z,100755.00
2023-02-18T21:44:41.956Z,100748.00
2023-02-18T21:47:10.584Z,100741.00
2023-02-18T21:49:39.747Z,100742.00
2023-02-18T21:52:09.383Z,100737.00
2023-02-18T21:54:40.113Z,100730.00
2023-02-18T21:57:11.280Z,100722.00
2023-02-18T21:59:39.501Z,100736.00
2023-02-18T22:02:09.884Z,100730.00
2023-02-18T22:04:40.029Z,100740.00
2023-02-18T22:07:08.802Z,100734.00
2023-02-18T22:09:36.728Z,100734.00
2023-02-18T22:12:05.275Z,100722.00
2023-02-18T22:14:32.956Z,100734.00
2023-02-18T22:17:01.130Z,100728.00
2023-02-18T22:19:28.829Z,100719.00
2023-02-18T22:21:58.190Z,100722.00
2023-02-18T22:24:25.907Z,100725.00
2023-02-18T22:26:53.869Z,100714.00
2023-02-18T22:29:22.153Z,100705.00
2023-02-18T22:31:53.172Z,100712.00
2023-02-18T22:34:21.688Z,100720.00
2023-02-18T22:36:49.623Z,100724.00
2023-02-18T22:39:18.792Z,100713.00
2023-02-18T22:41:46.662Z,100711.00
2023-02-18T22:44:16.645Z,100711.00
2023-02-18T22:46:45.396Z,100722.00
2023-02-18T22:49:13.424Z,100713.00
2023-02-18T22:51:42.693Z,100717.00
2023-02-18T22:54:13.204Z,100706.00
2023-02-18T22:56:44.549Z,100697.00
2023-02-18T22:59:12.827Z,100716.00
2023-02-18T23:01:42.261Z,100716.00
2023-02-18T23:04:12.135Z,100709.00
2023-02-18T23:06:42.478Z,100709.00
2023-02-18T23:09:14.216Z,100700.00
2023-02-18T23:11:43.631Z,100693.00
2023-02-18T23:14:21.382Z,100696.00
2023-02-18T23:17:13.611Z,100696.00
2023-02-18T23:19:42.502Z,100697.00
2023-02-18T23:22:11.798Z,100689.00
2023-02-18T23:24:41.689Z,100685.00
2023-02-18T23:27:13.323Z,100692.00
2023-02-18T23:29:41.450Z,100692.00
2023-02-18T23:32:09.888Z,100705.00
2023-02-18T23:34:39.071Z,100697.00
2023-02-18T23:37:07.156Z,100679.00
2023-02-18T23:39:35.237Z,100676.00
2023-02-18T23:42:02.925Z,100680.00
2023-02-18T23:44:32.024Z,100663.00
2023-02-18T23:47:00.246Z,100645.00
2023-02-18T23:49:28.669Z,100646.00
2023-02-18T23:51:57.997Z,100619.00
2023-02-18T23:54:25.986Z,100608.00
2023-02-18T23:56:54.168Z,100638.00
2023-02-18T23:59:21.958Z,100639.00
